This is the latest recevied weather packets stored in our database for station/object KE5VT. If no packets are shown the sender has not sent any weather packets the latest 10 day(s).
| Time | Temp. | Humidity | Pressure | Rain* | Wind** | Luminosity | Snow |
|---|---|---|---|---|---|---|---|
| 1787943899 | 29.44° C | 77% | 1012.9 hPa | 0 mm | - | 383 W/m² | - |
| 1787943594 | 29.44° C | 75% | 1013 hPa | 0 mm | - | 191 W/m² | - |
| 1787943289 | 30.56° C | 73% | 1013.1 hPa | 0 mm | - | 115 W/m² | - |
| 1787942983 | 30° C | 72% | 1012.9 hPa | 0 mm | - | 137 W/m² | - |
| 1787942679 | 30° C | 74% | 1013.2 hPa | 0 mm | - | 271 W/m² | - |
| 1787942379 | 30° C | 75% | 1013.2 hPa | 0 mm | - | 220 W/m² | - |
| 1787942074 | 29.44° C | 74% | 1013.3 hPa | 0 mm | - | 172 W/m² | - |
| 1787941770 | 30° C | 73% | 1013.5 hPa | 0 mm | - | 161 W/m² | - |
| 1787941468 | 30° C | 73% | 1013.4 hPa | 0 mm | - | 112 W/m² | - |
| 1787941167 | 30° C | 74% | 1013.4 hPa | 0 mm | - | 262 W/m² | - |
| 1787940863 | 30° C | 75% | 1013.6 hPa | 0 mm | - | 193 W/m² | - |
| 1787940561 | 31.11° C | 72% | 1013.6 hPa | 0 mm | - | 568 W/m² | - |
| 1787940255 | 30° C | 74% | 1013.7 hPa | 0 mm | - | 556 W/m² | - |
| 1787939950 | 30° C | 77% | 1013.7 hPa | 0 mm | - | 638 W/m² | - |
| 1787939649 | 29.44° C | 76% | 1013.8 hPa | 0 mm | - | 453 W/m² | - |
| 1787939343 | 29.44° C | 77% | 1013.7 hPa | 0 mm | - | 263 W/m² | - |
| 1787939038 | 30° C | 76% | 1013.9 hPa | 0 mm | - | 182 W/m² | - |
| 1787938736 | 30° C | 76% | 1013.8 hPa | 0 mm | - | 115 W/m² | - |
| 1787938434 | 29.44° C | 76% | 1013.9 hPa | 0 mm | - | 330 W/m² | - |
| 1787938129 | 29.44° C | 76% | 1013.9 hPa | 0 mm | - | 138 W/m² | - |
| 1787937829 | 30° C | 74% | 1013.8 hPa | 0 mm | - | 147 W/m² | - |
| 1787937525 | 28.89° C | 77% | 1013.8 hPa | 0 mm | - | 612 W/m² | - |
| 1787937221 | 29.44° C | 77% | 1013.9 hPa | 0 mm | - | 161 W/m² | - |
| 1787936916 | 29.44° C | 78% | 1014.2 hPa | 0 mm | - | 202 W/m² | - |
| 1787936615 | 29.44° C | 76% | 1014.1 hPa | 0 mm | - | 587 W/m² | - |
* Rain latest hour (hover to see other rain measurements)
** Current wind speed in m/s (hover to see current wind gust speed)